Time;durP1;ratioP1;P1;durP2;ratioP2;P2;SDS_P1;SDS_P2;PMS_P1;PMS_P2;Temp;Humidity;BMP_temperature;BMP_pressure;BME280_temperature;BME280_humidity;BME280_pressure;Samples;Min_cycle;Max_cycle;Signal;HPM_P1;HPM_P2
2023/08/28 00:00:21;;;;;;;11.85;10.15;;;;;;;22.26;72.27;99442.00;5088079;28;20295;-66
2023/08/28 00:02:51;;;;;;;11.05;9.88;;;;;;;22.17;72.67;99454.84;5088421;28;20215;-66
2023/08/28 00:05:19;;;;;;;11.20;10.20;;;;;;;22.10;72.95;99439.59;5088917;28;20208;-64
2023/08/28 00:07:47;;;;;;;13.48;10.52;;;;;;;22.13;73.08;99437.59;5088734;28;20313;-66
2023/08/28 00:10:15;;;;;;;12.75;11.40;;;;;;;22.10;73.07;99443.03;5089710;28;20716;-64
2023/08/28 00:12:43;;;;;;;11.95;10.85;;;;;;;22.09;73.36;99446.63;5090314;28;20212;-68
2023/08/28 00:15:12;;;;;;;13.02;10.45;;;;;;;22.11;73.30;99436.00;5087409;28;20205;-66
2023/08/28 00:17:40;;;;;;;15.80;10.75;;;;;;;22.14;73.23;99443.69;5089678;28;20222;-66
2023/08/28 00:20:12;;;;;;;12.90;10.75;;;;;;;22.13;73.25;99469.06;5089283;28;20223;-65
2023/08/28 00:22:40;;;;;;;13.18;10.77;;;;;;;22.15;73.07;99488.19;5088025;28;20634;-66
2023/08/28 00:25:09;;;;;;;11.25;10.05;;;;;;;22.16;73.00;99468.88;5088066;28;20197;-63
2023/08/28 00:27:37;;;;;;;13.95;10.43;;;;;;;22.16;72.84;99471.50;5092049;28;20665;-65
2023/08/28 00:30:06;;;;;;;12.05;10.80;;;;;;;22.12;73.11;99471.78;5086049;28;20201;-66
2023/08/28 00:32:35;;;;;;;12.32;11.07;;;;;;;22.11;73.46;99478.81;5089463;28;20204;-64
2023/08/28 00:35:03;;;;;;;10.75;9.65;;;;;;;22.10;73.54;99505.19;5086347;28;20577;-65
2023/08/28 00:37:32;;;;;;;14.18;11.57;;;;;;;22.08;73.79;99502.63;5095731;28;20621;-67
2023/08/28 00:40:00;;;;;;;14.30;11.45;;;;;;;22.06;73.87;99496.69;5089477;28;20200;-64
2023/08/28 00:42:28;;;;;;;13.57;11.10;;;;;;;22.06;74.00;99494.06;5083946;28;20209;-66
2023/08/28 00:44:56;;;;;;;12.55;11.35;;;;;;;22.05;74.09;99508.09;5087121;28;20214;-65
2023/08/28 00:47:25;;;;;;;14.95;11.48;;;;;;;22.02;74.03;99521.44;5100093;28;20647;-67
2023/08/28 00:49:55;;;;;;;11.80;10.70;;;;;;;22.00;73.90;99538.22;5093245;28;20208;-65
2023/08/28 00:52:23;;;;;;;13.35;10.38;;;;;;;21.94;74.04;99526.34;5084388;28;20292;-65
2023/08/28 00:54:52;;;;;;;11.55;10.35;;;;;;;21.90;74.11;99528.31;5085483;28;20392;-64
2023/08/28 00:57:21;;;;;;;8.90;7.85;;;;;;;21.83;73.73;99518.34;5093341;28;20645;-66
2023/08/28 00:59:49;;;;;;;6.65;5.85;;;;;;;21.78;73.19;99525.69;5085108;28;20202;-65
2023/08/28 01:02:17;;;;;;;8.20;5.88;;;;;;;21.74;73.49;99524.22;5086455;28;20235;-65
2023/08/28 01:04:45;;;;;;;5.35;4.10;;;;;;;21.66;73.08;99528.19;5088273;28;20201;-66
2023/08/28 01:07:23;;;;;;;3.95;3.63;;;;;;;21.60;73.35;99531.19;5089504;28;20196;-67
2023/08/28 01:10:05;;;;;;;5.47;3.63;;;;;;;21.56;74.02;99518.41;5091407;28;20208;-64
2023/08/28 01:12:41;;;;;;;4.18;3.78;;;;;;;21.59;74.31;99516.41;5089123;28;20277;-65
2023/08/28 01:15:13;;;;;;;4.78;3.40;;;;;;;21.61;74.08;99529.41;5093579;28;20987;-64
2023/08/28 01:17:44;;;;;;;5.50;3.90;;;;;;;21.62;73.84;99520.63;5103485;28;20219;-64
2023/08/28 01:20:15;;;;;;;3.90;3.30;;;;;;;21.61;74.05;99508.44;5092952;28;20204;-64
2023/08/28 01:22:51;;;;;;;3.80;3.15;;;;;;;21.59;73.96;99516.41;5101080;28;20212;-64
2023/08/28 01:25:21;;;;;;;5.60;3.17;;;;;;;21.52;73.98;99524.78;5081512;28;20336;-64
2023/08/28 01:27:49;;;;;;;3.17;2.83;;;;;;;21.53;74.45;99531.69;5091888;28;20196;-64
2023/08/28 01:30:17;;;;;;;3.90;3.00;;;;;;;21.53;74.61;99531.69;5093152;28;20211;-64
2023/08/28 01:32:46;;;;;;;4.15;2.92;;;;;;;21.50;74.64;99542.38;5093846;28;20250;-64
2023/08/28 01:35:17;;;;;;;3.22;2.83;;;;;;;21.45;74.45;99535.66;5089726;28;20288;-64
2023/08/28 01:37:58;;;;;;;3.53;2.78;;;;;;;21.43;74.56;99542.78;5090049;28;20204;-64
2023/08/28 01:40:36;;;;;;;3.60;2.92;;;;;;;21.34;74.51;99542.53;5083102;28;20205;-65
2023/08/28 01:43:08;;;;;;;3.20;2.47;;;;;;;21.30;74.95;99541.03;5082150;28;20301;-64
2023/08/28 01:45:37;;;;;;;2.55;2.13;;;;;;;21.30;74.87;99538.41;5088587;28;20682;-63
2023/08/28 01:48:06;;;;;;;2.80;2.47;;;;;;;21.34;75.01;99546.00;5092409;28;20219;-64
2023/08/28 01:50:34;;;;;;;4.45;2.40;;;;;;;21.27;74.01;99528.09;5089407;28;20196;-67
2023/08/28 01:53:02;;;;;;;5.85;2.58;;;;;;;21.13;74.92;99534.22;5091686;28;20300;-66
2023/08/28 01:56:14;;;;;;;3.67;2.30;;;;;;;21.08;75.39;99542.38;5081504;28;20251;-64
2023/08/28 01:58:44;;;;;;;2.65;2.33;;;;;;;21.06;74.94;99544.28;5103348;28;20204;-64
2023/08/28 02:01:12;;;;;;;2.17;1.98;;;;;;;21.01;75.25;99551.56;5082283;28;20636;-64
2023/08/28 02:03:42;;;;;;;3.65;2.60;;;;;;;21.02;75.65;99560.25;5089366;28;20236;-64
2023/08/28 02:06:10;;;;;;;2.63;2.30;;;;;;;21.04;75.36;99564.47;5088410;28;20284;-65
2023/08/28 02:08:38;;;;;;;2.47;2.03;;;;;;;21.07;75.30;99564.28;5090818;28;20290;-65
2023/08/28 02:11:07;;;;;;;2.10;1.98;;;;;;;21.07;75.39;99569.53;5084393;28;20201;-65
2023/08/28 02:13:35;;;;;;;4.45;2.20;;;;;;;21.04;74.73;99579.34;5092080;28;20203;-65
2023/08/28 02:16:04;;;;;;;2.45;2.25;;;;;;;20.96;74.40;99588.53;5082780;28;20561;-63
2023/08/28 02:18:32;;;;;;;1.83;1.73;;;;;;;20.91;75.25;99593.22;5089784;28;20703;-63
2023/08/28 02:21:00;;;;;;;2.33;2.13;;;;;;;20.86;75.32;99591.78;5088922;28;20204;-64
2023/08/28 02:23:29;;;;;;;2.13;1.70;;;;;;;20.84;75.37;99589.28;5092639;28;20233;-64
2023/08/28 02:25:57;;;;;;;2.25;2.05;;;;;;;20.83;75.10;99597.22;5083037;28;20200;-62
2023/08/28 02:28:26;;;;;;;2.38;2.03;;;;;;;20.80;74.56;99603.47;5084039;28;20211;-64
2023/08/28 02:30:59;;;;;;;2.38;2.10;;;;;;;20.75;75.21;99618.63;5085195;28;21779;-63
2023/08/28 02:33:28;;;;;;;2.22;1.95;;;;;;;20.77;75.61;99608.91;5091467;28;20200;-62
2023/08/28 02:35:56;;;;;;;2.80;2.28;;;;;;;20.81;75.35;99606.97;5074753;28;20318;-64
2023/08/28 02:38:24;;;;;;;4.20;2.60;;;;;;;20.81;74.95;99601.72;5083933;28;20705;-64
2023/08/28 02:40:52;;;;;;;4.10;2.88;;;;;;;20.75;74.23;99608.16;5086353;28;20209;-63
2023/08/28 02:43:20;;;;;;;2.63;2.42;;;;;;;20.69;74.66;99598.03;5095969;28;20220;-63
2023/08/28 02:45:50;;;;;;;2.90;2.25;;;;;;;20.64;74.98;99580.00;5085674;28;20231;-63
2023/08/28 02:48:17;;;;;;;2.75;2.55;;;;;;;20.67;74.89;99599.94;5088287;28;20200;-64
2023/08/28 02:50:50;;;;;;;3.05;2.35;;;;;;;20.69;74.95;99587.56;5085251;28;20663;-64
2023/08/28 02:53:18;;;;;;;3.92;2.45;;;;;;;20.72;74.50;99592.63;5095690;28;20665;-64
2023/08/28 02:56:22;;;;;;;3.72;2.55;;;;;;;20.68;74.36;99584.13;5086386;28;20289;-65
2023/08/28 02:58:50;;;;;;;2.95;2.72;;;;;;;20.68;74.67;99583.28;5099034;28;20196;-63
2023/08/28 03:01:20;;;;;;;2.72;2.20;;;;;;;20.66;74.65;99588.63;5096983;28;20215;-63
2023/08/28 03:03:48;;;;;;;4.45;2.70;;;;;;;20.66;74.56;99606.94;5095080;28;20699;-65
2023/08/28 03:06:16;;;;;;;2.67;2.47;;;;;;;20.65;74.60;99601.78;5089384;28;20216;-64
2023/08/28 03:08:44;;;;;;;2.78;2.55;;;;;;;20.65;74.46;99604.41;5080366;28;20578;-62
2023/08/28 03:11:12;;;;;;;2.78;2.42;;;;;;;20.61;74.48;99606.38;5088711;28;20209;-63
2023/08/28 03:13:42;;;;;;;2.85;2.58;;;;;;;20.62;74.42;99626.41;5083911;28;20223;-64
2023/08/28 03:16:10;;;;;;;4.03;2.90;;;;;;;20.59;74.35;99630.97;5071072;28;20228;-65
2023/08/28 03:18:40;;;;;;;3.30;3.00;;;;;;;20.51;74.09;99634.03;5086821;28;20230;-67
2023/08/28 03:21:08;;;;;;;4.13;2.72;;;;;;;20.44;75.26;99633.53;5088409;28;20205;-62
2023/08/28 03:23:35;;;;;;;4.90;3.28;;;;;;;20.45;75.10;99629.97;5089846;28;20848;-63
2023/08/28 03:26:03;;;;;;;3.08;2.78;;;;;;;20.42;74.83;99626.69;5096358;28;20201;-64
2023/08/28 03:28:32;;;;;;;3.70;3.28;;;;;;;20.36;75.34;99635.75;5076798;28;20202;-61
2023/08/28 03:31:01;;;;;;;3.35;3.05;;;;;;;20.33;75.34;99643.78;5084572;28;20196;-65
2023/08/28 03:33:29;;;;;;;7.90;3.20;;;;;;;20.27;75.41;99654.59;5088191;28;20204;-62
2023/08/28 03:35:59;;;;;;;2.95;2.72;;;;;;;20.25;75.62;99652.06;5091430;28;20243;-63
2023/08/28 03:38:27;;;;;;;5.38;3.00;;;;;;;20.23;75.75;99643.47;5087608;28;20672;-65
2023/08/28 03:40:55;;;;;;;4.05;3.08;;;;;;;20.23;75.54;99645.25;5082535;28;20236;-64
2023/08/28 03:43:23;;;;;;;4.80;3.38;;;;;;;20.23;75.74;99642.63;5088415;28;20223;-65
2023/08/28 03:45:51;;;;;;;6.63;3.15;;;;;;;20.21;75.68;99634.88;5093746;28;20219;-65
2023/08/28 03:48:19;;;;;;;4.70;3.15;;;;;;;20.21;75.07;99641.84;5088611;28;20737;-64
2023/08/28 03:50:47;;;;;;;4.03;3.40;;;;;;;20.13;75.36;99641.47;5084092;28;20200;-67
2023/08/28 03:53:16;;;;;;;3.55;3.00;;;;;;;20.06;76.12;99646.19;5090492;28;20216;-65
2023/08/28 03:55:44;;;;;;;3.45;3.25;;;;;;;20.06;75.95;99643.56;5089256;28;20209;-63
2023/08/28 03:58:12;;;;;;;4.18;3.15;;;;;;;20.05;75.96;99644.50;5087009;28;20296;-63
2023/08/28 04:00:40;;;;;;;4.72;3.33;;;;;;;20.03;75.93;99643.78;5086058;28;20215;-63
2023/08/28 04:03:08;;;;;;;4.68;3.20;;;;;;;20.02;76.25;99642.06;5083069;28;20287;-62
2023/08/28 04:05:37;;;;;;;3.53;3.20;;;;;;;20.02;76.66;99639.47;5085195;28;20208;-66
2023/08/28 04:08:05;;;;;;;4.72;3.60;;;;;;;20.07;76.49;99642.66;5080413;28;20239;-67
2023/08/28 04:10:37;;;;;;;6.20;3.30;;;;;;;20.03;76.31;99646.41;5087901;28;20201;-65
2023/08/28 04:13:05;;;;;;;3.70;3.40;;;;;;;20.00;76.32;99641.34;5088744;28;20200;-65
2023/08/28 04:15:33;;;;;;;4.25;3.35;;;;;;;20.03;76.27;99657.69;5088724;28;20208;-64
2023/08/28 04:18:01;;;;;;;6.63;3.65;;;;;;;20.05;76.05;99678.53;5098722;28;20682;-63
2023/08/28 04:20:30;;;;;;;3.35;3.03;;;;;;;20.01;76.08;99683.06;5086703;28;20239;-63
2023/08/28 04:22:58;;;;;;;4.43;3.35;;;;;;;19.98;76.24;99679.78;5084608;28;20201;-63
2023/08/28 04:25:26;;;;;;;4.28;3.88;;;;;;;19.97;76.73;99684.19;5098324;28;20242;-63
2023/08/28 04:27:56;;;;;;;5.03;3.60;;;;;;;19.97;76.91;99683.34;5086441;28;20211;-62
2023/08/28 04:30:25;;;;;;;4.43;3.80;;;;;;;19.98;76.65;99672.78;5084316;28;20227;-64
2023/08/28 04:32:53;;;;;;;4.07;3.67;;;;;;;20.00;77.05;99672.72;5091218;28;20603;-65
2023/08/28 04:35:21;;;;;;;4.70;3.95;;;;;;;20.03;76.56;99664.69;5087806;28;20214;-65
2023/08/28 04:37:51;;;;;;;5.50;3.80;;;;;;;20.02;76.31;99658.59;5096454;28;20207;-63
2023/08/28 04:40:19;;;;;;;3.90;3.60;;;;;;;20.05;76.55;99665.44;5088468;28;20644;-65
2023/08/28 04:42:47;;;;;;;5.10;3.67;;;;;;;20.05;76.78;99673.28;5086334;28;20612;-65
2023/08/28 04:45:16;;;;;;;4.00;3.05;;;;;;;20.09;76.10;99685.25;5086705;28;20220;-63
2023/08/28 04:47:44;;;;;;;3.78;3.38;;;;;;;20.07;76.19;99697.59;5097638;28;20207;-65
2023/08/28 04:50:12;;;;;;;3.97;3.47;;;;;;;20.05;76.48;99693.38;5081342;28;20213;-66
2023/08/28 04:52:40;;;;;;;4.20;3.80;;;;;;;20.05;76.93;99696.81;5087776;28;20234;-64
2023/08/28 04:55:09;;;;;;;3.70;3.40;;;;;;;20.13;76.28;99702.47;5083589;28;20592;-67
2023/08/28 04:57:37;;;;;;;3.35;3.08;;;;;;;20.11;75.77;99701.72;5089172;28;20208;-66
2023/08/28 05:00:06;;;;;;;4.28;3.53;;;;;;;20.12;75.96;99713.88;5091779;28;20200;-66
2023/08/28 05:02:36;;;;;;;3.55;3.25;;;;;;;20.10;75.50;99715.72;5072972;28;20216;-67
2023/08/28 05:05:04;;;;;;;3.40;3.10;;;;;;;20.05;75.82;99712.53;5083484;28;20213;-66
2023/08/28 05:07:32;;;;;;;3.17;2.88;;;;;;;20.01;76.03;99700.53;5091391;28;20200;-67
2023/08/28 05:10:00;;;;;;;4.47;3.20;;;;;;;19.98;75.95;99700.72;5080341;28;20655;-67
2023/08/28 05:12:28;;;;;;;4.07;3.13;;;;;;;19.96;75.89;99702.59;5086904;28;20200;-67
2023/08/28 05:14:57;;;;;;;3.00;2.80;;;;;;;19.92;75.82;99714.13;5079211;28;20197;-67
2023/08/28 05:17:24;;;;;;;3.08;2.75;;;;;;;19.93;75.76;99713.22;5086083;28;20672;-67
2023/08/28 05:19:54;;;;;;;3.50;3.20;;;;;;;19.95;75.70;99721.78;5077075;28;20600;-67
2023/08/28 05:22:22;;;;;;;3.88;2.83;;;;;;;19.94;75.69;99736.66;5080418;28;20604;-68
2023/08/28 05:24:50;;;;;;;6.85;5.30;;;;;;;19.96;75.83;99747.03;5087781;28;20286;-67
2023/08/28 05:27:18;;;;;;;3.33;3.03;;;;;;;19.96;75.85;99757.50;5084586;28;20201;-66
2023/08/28 05:29:48;;;;;;;3.10;2.88;;;;;;;19.91;76.08;99756.91;5093304;28;20205;-67
2023/08/28 05:32:16;;;;;;;3.95;3.65;;;;;;;19.85;75.94;99752.84;5093922;28;20833;-66
2023/08/28 05:34:44;;;;;;;3.40;3.10;;;;;;;19.79;76.14;99763.63;5083268;28;20201;-67
2023/08/28 05:37:13;;;;;;;3.90;3.50;;;;;;;19.73;76.32;99759.56;5080501;28;20282;-67
2023/08/28 05:39:41;;;;;;;4.43;3.58;;;;;;;19.72;76.25;99751.81;5087299;28;20719;-64
2023/08/28 05:42:09;;;;;;;4.80;3.33;;;;;;;19.70;76.47;99740.59;5082429;28;20209;-64
2023/08/28 05:44:37;;;;;;;6.13;3.08;;;;;;;19.74;76.55;99745.59;5094763;28;20248;-64
2023/08/28 05:47:05;;;;;;;4.50;3.20;;;;;;;19.72;75.53;99739.59;5088078;28;20200;-65
2023/08/28 05:49:33;;;;;;;4.72;3.40;;;;;;;19.75;76.00;99742.03;5096200;28;20562;-67
2023/08/28 05:52:02;;;;;;;4.93;3.58;;;;;;;19.72;75.94;99747.44;5094002;28;20664;-64
2023/08/28 05:54:32;;;;;;;4.40;2.95;;;;;;;19.71;76.28;99760.59;5084454;28;20608;-65
2023/08/28 05:57:00;;;;;;;3.30;2.92;;;;;;;19.69;76.09;99765.06;5084763;28;20293;-63
2023/08/28 05:59:28;;;;;;;4.03;2.70;;;;;;;19.70;76.11;99753.66;5085263;28;20251;-67
2023/08/28 06:01:56;;;;;;;3.58;2.47;;;;;;;19.77;76.09;99749.78;5084069;28;20209;-67
2023/08/28 06:04:24;;;;;;;4.90;2.90;;;;;;;19.86;76.05;99732.78;5092204;28;20238;-64
2023/08/28 06:06:52;;;;;;;4.75;2.45;;;;;;;20.07;75.43;99735.97;5087774;28;20205;-64
2023/08/28 06:09:20;;;;;;;2.63;2.22;;;;;;;20.34;74.90;99728.34;5100016;28;20673;-61
2023/08/28 06:11:50;;;;;;;4.35;2.60;;;;;;;20.52;73.19;99723.88;5095475;28;20197;-63
2023/08/28 06:14:18;;;;;;;4.30;2.65;;;;;;;20.65;73.13;99730.91;5090664;28;20216;-63
2023/08/28 06:16:46;;;;;;;3.10;2.80;;;;;;;20.82;72.29;99716.84;5077918;28;20200;-64
2023/08/28 06:19:14;;;;;;;6.45;2.60;;;;;;;21.06;71.48;99711.94;5090326;28;20201;-63
2023/08/28 06:21:44;;;;;;;3.63;2.30;;;;;;;21.32;70.35;99725.19;5089828;28;20205;-62
2023/08/28 06:24:13;;;;;;;3.08;2.80;;;;;;;21.58;69.30;99732.34;5089455;28;20213;-62
2023/08/28 06:26:42;;;;;;;3.78;2.50;;;;;;;21.80;68.04;99734.47;5092481;28;20221;-63
2023/08/28 06:29:12;;;;;;;3.50;3.15;;;;;;;21.89;67.09;99743.53;5092433;28;20254;-62
2023/08/28 06:31:42;;;;;;;5.60;4.57;;;;;;;21.96;66.76;99744.84;5079509;28;20204;-63
2023/08/28 06:34:10;;;;;;;3.63;2.75;;;;;;;22.11;66.84;99754.34;5081458;28;20307;-62
2023/08/28 06:36:38;;;;;;;4.80;2.50;;;;;;;22.27;66.16;99754.22;5102559;28;20323;-61
2023/08/28 06:39:07;;;;;;;3.90;2.60;;;;;;;22.45;65.38;99749.56;5084550;28;20201;-63
2023/08/28 06:41:35;;;;;;;2.50;2.22;;;;;;;22.57;64.42;99750.53;5091469;28;20201;-62
2023/08/28 06:44:04;;;;;;;2.33;1.90;;;;;;;22.63;63.55;99750.97;5099315;28;20647;-62
2023/08/28 06:46:36;;;;;;;3.60;2.20;;;;;;;22.77;63.72;99750.06;5096837;28;20216;-62
2023/08/28 06:49:04;;;;;;;2.70;2.15;;;;;;;22.92;62.56;99750.84;5090045;28;20605;-62
2023/08/28 06:51:32;;;;;;;3.00;2.20;;;;;;;23.04;61.83;99747.38;5082711;28;20542;-64
2023/08/28 06:54:00;;;;;;;2.22;2.03;;;;;;;23.19;61.33;99755.19;5088804;28;20593;-63
2023/08/28 06:56:29;;;;;;;4.28;2.47;;;;;;;23.28;60.75;99762.44;5081275;28;20229;-63
2023/08/28 06:58:57;;;;;;;2.22;2.00;;;;;;;23.38;60.48;99760.84;5086287;28;20670;-63
2023/08/28 07:01:25;;;;;;;1.77;1.67;;;;;;;23.44;59.43;99762.22;5082141;28;20201;-64
2023/08/28 07:03:54;;;;;;;2.42;2.10;;;;;;;23.52;59.56;99765.16;5096144;28;20243;-64
2023/08/28 07:06:22;;;;;;;6.20;2.40;;;;;;;23.61;58.99;99768.00;5085531;28;20224;-67
2023/08/28 07:08:50;;;;;;;4.18;2.55;;;;;;;23.71;58.10;99762.09;5083458;28;20638;-64
2023/08/28 07:11:18;;;;;;;4.03;2.38;;;;;;;23.80;57.52;99757.03;5083000;28;20205;-63
2023/08/28 07:13:46;;;;;;;3.40;2.35;;;;;;;23.82;57.04;99762.19;5094002;28;20201;-62
2023/08/28 07:16:16;;;;;;;2.85;2.53;;;;;;;23.77;56.13;99773.03;5086686;28;20213;-63
2023/08/28 07:18:44;;;;;;;2.63;2.42;;;;;;;23.68;56.84;99780.75;5081398;28;20270;-63
2023/08/28 07:21:16;;;;;;;4.03;2.72;;;;;;;23.67;56.76;99773.78;5077661;28;20216;-63
2023/08/28 07:23:44;;;;;;;2.55;2.15;;;;;;;23.71;56.44;99767.38;5083450;28;20656;-63
2023/08/28 07:26:16;;;;;;;2.65;2.45;;;;;;;23.79;56.62;99780.84;5088879;28;20220;-63
2023/08/28 07:28:46;;;;;;;4.10;2.38;;;;;;;23.96;56.21;99774.38;5084585;28;20200;-64
2023/08/28 07:31:14;;;;;;;3.00;2.70;;;;;;;24.17;55.56;99769.34;5086221;28;20655;-65
2023/08/28 07:33:42;;;;;;;2.70;2.50;;;;;;;24.37;55.27;99760.81;5092147;28;20737;-65
2023/08/28 07:36:10;;;;;;;2.60;2.40;;;;;;;24.47;54.44;99771.56;5090704;28;20722;-63
2023/08/28 07:38:43;;;;;;;2.78;2.58;;;;;;;24.45;53.88;99770.81;5089026;28;20197;-63
2023/08/28 07:41:11;;;;;;;3.20;2.90;;;;;;;24.40;54.04;99772.97;5086039;28;20212;-67
2023/08/28 07:43:39;;;;;;;3.60;3.20;;;;;;;24.39;53.69;99777.41;5089581;28;20302;-64
2023/08/28 07:46:07;;;;;;;3.08;2.78;;;;;;;24.35;54.09;99773.28;5084052;28;20684;-67
2023/08/28 07:48:35;;;;;;;4.40;3.30;;;;;;;24.39;53.94;99769.50;5089283;28;20222;-64
2023/08/28 07:51:03;;;;;;;4.38;2.80;;;;;;;24.48;54.32;99762.72;5081211;28;20221;-63
2023/08/28 07:53:31;;;;;;;3.92;3.35;;;;;;;24.51;53.13;99767.75;5088504;28;20281;-64
2023/08/28 07:56:02;;;;;;;4.53;3.60;;;;;;;24.40;53.62;99751.91;5089281;28;20197;-64
2023/08/28 07:58:30;;;;;;;3.80;3.40;;;;;;;24.30;54.12;99767.50;5088300;28;20197;-64
2023/08/28 08:00:59;;;;;;;4.07;3.38;;;;;;;24.12;54.33;99753.91;5080004;28;20201;-65
2023/08/28 08:03:28;;;;;;;4.80;3.15;;;;;;;24.00;55.03;99762.66;5083253;28;20294;-62
2023/08/28 08:05:56;;;;;;;3.90;3.03;;;;;;;23.91;55.34;99766.81;5086125;28;20218;-61
2023/08/28 08:08:24;;;;;;;6.15;3.40;;;;;;;23.77;55.32;99751.16;5083303;28;20208;-63
2023/08/28 08:10:52;;;;;;;3.90;3.25;;;;;;;23.66;56.13;99748.41;5086450;28;20193;-60
2023/08/28 08:13:21;;;;;;;3.78;2.92;;;;;;;23.59;56.42;99748.84;5085301;28;20224;-61
2023/08/28 08:15:49;;;;;;;5.25;3.40;;;;;;;23.61;56.67;99744.31;5081947;28;20212;-59
2023/08/28 08:18:17;;;;;;;6.00;3.17;;;;;;;23.65;56.57;99744.09;5089022;28;20214;-61
2023/08/28 08:20:45;;;;;;;6.03;3.30;;;;;;;23.71;56.85;99744.53;5090501;28;20568;-60
2023/08/28 08:23:13;;;;;;;3.97;3.63;;;;;;;23.74;56.70;99748.75;5086781;28;20242;-61
2023/08/28 08:25:41;;;;;;;5.22;3.97;;;;;;;23.70;56.50;99742.00;5082830;28;20205;-60
2023/08/28 08:28:09;;;;;;;4.97;3.30;;;;;;;23.67;56.94;99748.31;5081953;28;20201;-62
2023/08/28 08:30:38;;;;;;;2.80;2.50;;;;;;;23.72;57.13;99761.19;5083029;28;20213;-60
2023/08/28 08:33:06;;;;;;;4.30;2.92;;;;;;;23.76;56.04;99752.94;5085900;28;20204;-61
2023/08/28 08:35:35;;;;;;;2.92;2.67;;;;;;;23.85;55.77;99754.06;5098031;28;20323;-60
2023/08/28 08:38:03;;;;;;;4.85;3.53;;;;;;;23.96;54.97;99764.66;5085149;28;20209;-62
2023/08/28 08:40:33;;;;;;;3.80;2.90;;;;;;;24.01;54.99;99761.72;5088166;28;20643;-61
2023/08/28 08:43:01;;;;;;;3.40;2.72;;;;;;;24.05;54.87;99753.50;5085873;28;20213;-63
2023/08/28 08:45:30;;;;;;;4.47;3.13;;;;;;;23.98;54.65;99765.41;5082595;28;20222;-62
2023/08/28 08:48:01;;;;;;;2.80;2.50;;;;;;;23.95;55.16;99746.38;5077270;28;20254;-61
2023/08/28 08:50:31;;;;;;;3.47;3.17;;;;;;;23.99;55.22;99748.66;5090748;28;20192;-62
2023/08/28 08:53:06;;;;;;;2.80;2.60;;;;;;;24.10;54.85;99761.88;5079003;28;20252;-62
2023/08/28 08:55:40;;;;;;;3.00;2.33;;;;;;;24.21;54.69;99766.38;5091518;28;20626;-62
2023/08/28 08:58:11;;;;;;;4.60;2.42;;;;;;;24.22;54.25;99781.22;5080048;28;20648;-60
2023/08/28 09:00:43;;;;;;;2.58;2.05;;;;;;;24.25;53.82;99774.91;5083184;28;20227;-61
2023/08/28 09:03:13;;;;;;;2.40;2.20;;;;;;;24.32;52.52;99766.44;5082074;28;20232;-62
2023/08/28 09:05:42;;;;;;;3.15;2.03;;;;;;;24.36;52.85;99769.69;5069690;28;20200;-60
2023/08/28 09:08:11;;;;;;;2.65;2.45;;;;;;;24.44;52.08;99779.69;5083376;28;20205;-60
2023/08/28 09:10:39;;;;;;;2.45;2.10;;;;;;;24.47;51.84;99772.41;5086793;28;20215;-62
2023/08/28 09:13:07;;;;;;;2.90;2.60;;;;;;;24.49;52.54;99767.03;5086857;28;20655;-62
2023/08/28 09:15:35;;;;;;;2.33;2.20;;;;;;;24.50;52.38;99777.44;5089125;28;20597;-62
2023/08/28 09:18:05;;;;;;;2.38;2.28;;;;;;;24.45;53.01;99778.72;5083968;28;22809;-60
2023/08/28 09:20:35;;;;;;;3.55;2.22;;;;;;;24.40;52.82;99779.06;5087861;28;20219;-59
2023/08/28 09:23:03;;;;;;;2.30;2.10;;;;;;;24.35;53.52;99773.28;5083911;28;20197;-62
2023/08/28 09:25:32;;;;;;;2.35;2.08;;;;;;;24.35;52.95;99775.91;5081955;28;20215;-62
2023/08/28 09:28:00;;;;;;;2.20;1.85;;;;;;;24.30;52.15;99772.75;5093886;28;20625;-59
2023/08/28 09:30:30;;;;;;;2.72;2.05;;;;;;;24.25;52.57;99780.16;5086903;28;20201;-61
2023/08/28 09:32:58;;;;;;;2.53;2.28;;;;;;;24.14;52.25;99782.72;5084666;28;20203;-63
2023/08/28 09:35:27;;;;;;;3.75;2.33;;;;;;;24.00;52.59;99797.72;5086014;28;20547;-61
2023/08/28 09:38:01;;;;;;;3.13;2.42;;;;;;;23.80;53.83;99796.50;5044140;28;20198;-59
2023/08/28 09:40:31;;;;;;;3.10;2.60;;;;;;;23.70;54.60;99792.00;5049723;28;20209;-59
2023/08/28 09:43:00;;;;;;;3.38;2.38;;;;;;;23.61;54.48;99794.28;5051842;28;20285;-60
2023/08/28 09:45:32;;;;;;;2.55;2.35;;;;;;;23.51;54.96;99784.53;5044389;28;20199;-62
2023/08/28 09:48:04;;;;;;;3.33;2.33;;;;;;;23.46;54.97;99782.22;5042922;28;20220;-60
2023/08/28 09:50:34;;;;;;;3.63;2.42;;;;;;;23.37;55.18;99785.47;5042102;28;20636;-61
2023/08/28 09:53:08;;;;;;;2.78;2.30;;;;;;;23.34;55.35;99812.84;5049338;28;20217;-59
2023/08/28 09:55:40;;;;;;;2.38;2.22;;;;;;;23.29;54.63;99808.81;5044167;28;20283;-60
2023/08/28 09:58:09;;;;;;;2.78;2.10;;;;;;;23.25;54.95;99799.47;5045592;28;20653;-60
2023/08/28 10:00:39;;;;;;;4.65;2.65;;;;;;;23.25;55.09;99804.72;5048214;28;20210;-63
2023/08/28 10:03:08;;;;;;;3.05;2.50;;;;;;;23.23;55.38;99796.91;5054879;28;20205;-61
2023/08/28 10:05:38;;;;;;;2.53;2.33;;;;;;;23.25;55.75;99796.81;5051570;28;20321;-61
2023/08/28 10:08:09;;;;;;;3.47;2.33;;;;;;;23.28;55.73;99783.47;5048544;28;20688;-62
2023/08/28 10:10:40;;;;;;;2.58;2.13;;;;;;;23.31;55.45;99783.28;5044498;28;20208;-62
2023/08/28 10:13:13;;;;;;;2.38;2.17;;;;;;;23.32;55.31;99784.94;5055438;28;20323;-61
2023/08/28 10:15:49;;;;;;;3.25;2.45;;;;;;;23.32;55.64;99784.94;5054725;28;20362;-63
2023/08/28 10:18:23;;;;;;;4.63;2.15;;;;;;;23.34;55.27;99788.28;5058739;28;20201;-61
2023/08/28 10:20:51;;;;;;;3.22;2.50;;;;;;;23.31;55.29;99792.00;5049692;28;20206;-69
2023/08/28 10:23:21;;;;;;;2.55;2.35;;;;;;;23.26;55.92;99788.00;5053739;28;20731;-62
2023/08/28 10:25:54;;;;;;;2.50;2.30;;;;;;;23.25;56.65;99794.19;5057234;28;20567;-63
2023/08/28 10:28:23;;;;;;;2.35;2.15;;;;;;;23.22;56.38;99811.00;5053449;28;20218;-65
2023/08/28 10:30:54;;;;;;;5.05;3.25;;;;;;;23.24;56.45;99839.84;5055717;28;20205;-63
2023/08/28 10:33:23;;;;;;;2.42;2.22;;;;;;;23.22;56.75;99833.84;5053486;28;20213;-63
2023/08/28 10:35:53;;;;;;;3.28;2.63;;;;;;;23.23;56.73;99846.88;5057069;28;20237;-64
2023/08/28 10:38:23;;;;;;;4.70;2.55;;;;;;;23.26;56.54;99845.81;5093226;28;20200;-62
2023/08/28 10:40:53;;;;;;;3.65;2.80;;;;;;;23.32;56.64;99854.16;5093821;28;21094;-64
2023/08/28 10:43:23;;;;;;;4.88;2.60;;;;;;;23.32;56.38;99845.41;5091163;28;20196;-68
2023/08/28 10:45:54;;;;;;;4.28;2.70;;;;;;;23.31;56.62;99841.94;5093518;28;20211;-66
2023/08/28 10:48:23;;;;;;;3.97;3.00;;;;;;;23.32;56.32;99834.91;5092963;28;20219;-65
2023/08/28 10:50:56;;;;;;;4.28;2.30;;;;;;;23.35;56.58;99845.22;5093702;28;20721;-65
2023/08/28 10:53:26;;;;;;;4.22;3.05;;;;;;;23.39;56.09;99841.44;5092327;28;20212;-64
2023/08/28 10:55:57;;;;;;;2.95;2.50;;;;;;;23.52;56.31;99844.88;5090191;28;20200;-66
2023/08/28 10:58:25;;;;;;;3.58;2.70;;;;;;;23.73;55.50;99842.63;5093423;28;20704;-65
2023/08/28 11:01:12;;;;;;;4.07;2.58;;;;;;;24.05;54.83;99850.88;5089331;28;20209;-66
2023/08/28 11:04:16;;;;;;;3.03;2.67;;;;;;;24.17;54.19;99856.22;5101321;28;20220;-67
2023/08/28 11:06:45;;;;;;;4.32;2.65;;;;;;;24.19;53.23;99860.44;5071560;28;20215;-67
2023/08/28 11:09:39;;;;;;;2.95;2.70;;;;;;;24.09;53.78;99862.88;5089452;28;20216;-66
2023/08/28 11:12:29;;;;;;;2.80;2.22;;;;;;;23.91;53.22;99853.66;5086536;28;20205;-68
2023/08/28 11:15:03;;;;;;;4.60;4.20;;;;;;;23.70;53.63;99863.03;5089294;28;20209;-69
2023/08/28 11:17:33;;;;;;;3.55;2.70;;;;;;;23.55;54.87;99878.03;5090557;28;20683;-68
2023/08/28 11:20:05;;;;;;;3.55;2.85;;;;;;;23.43;54.85;99879.72;5089129;28;20197;-69
2023/08/28 11:22:34;;;;;;;3.00;2.70;;;;;;;23.38;55.94;99882.66;5092041;28;20208;-68
2023/08/28 11:25:07;;;;;;;3.15;2.60;;;;;;;23.34;56.01;99878.56;5091671;28;20197;-65
2023/08/28 11:27:42;;;;;;;2.80;2.60;;;;;;;23.27;55.35;99869.41;5084319;28;20587;-64
2023/08/28 11:30:11;;;;;;;4.45;2.95;;;;;;;23.27;56.22;99885.19;5088357;28;20204;-65
2023/08/28 11:32:42;;;;;;;3.08;2.78;;;;;;;23.23;56.35;99874.94;5091835;28;20207;-66
2023/08/28 11:35:13;;;;;;;3.28;2.97;;;;;;;23.15;55.59;99855.25;5092602;28;20708;-64
2023/08/28 11:37:42;;;;;;;4.22;3.05;;;;;;;23.09;56.15;99842.56;5091755;28;20244;-67
2023/08/28 11:40:18;;;;;;;4.78;2.90;;;;;;;23.06;57.70;99837.50;5101377;28;20232;-67
2023/08/28 11:42:47;;;;;;;4.78;3.15;;;;;;;23.09;57.82;99818.91;5097805;28;20207;-64